createdAt,value
2022-12-09T00:01:48.578Z,11.90
2022-12-09T00:06:51.037Z,11.80
2022-12-09T00:11:53.795Z,11.80
2022-12-09T00:16:56.567Z,11.80
2022-12-09T00:21:58.992Z,11.80
2022-12-09T00:27:01.406Z,11.80
2022-12-09T00:32:04.179Z,11.90
2022-12-09T00:37:06.620Z,11.90
2022-12-09T00:42:08.984Z,12.00
2022-12-09T00:47:11.628Z,12.00
2022-12-09T00:52:14.049Z,12.00
2022-12-09T00:57:16.271Z,12.00
2022-12-09T01:02:18.883Z,12.00
2022-12-09T01:07:21.268Z,11.90
2022-12-09T01:12:24.538Z,11.90
2022-12-09T01:17:26.995Z,11.90
2022-12-09T01:22:29.519Z,11.80
2022-12-09T01:27:33.132Z,11.90
2022-12-09T01:32:35.713Z,11.90
2022-12-09T01:37:38.568Z,11.90
2022-12-09T01:42:40.910Z,11.90
2022-12-09T01:47:43.725Z,11.90
2022-12-09T01:52:48.146Z,11.90
2022-12-09T01:57:51.096Z,11.90
2022-12-09T02:02:54.766Z,11.90
2022-12-09T02:07:57.861Z,11.80
2022-12-09T02:13:08.442Z,11.80
2022-12-09T02:18:21.836Z,11.80
2022-12-09T02:23:33.996Z,11.70
2022-12-09T02:28:56.582Z,11.80
2022-12-09T02:34:20.359Z,11.80
2022-12-09T02:39:42.423Z,11.70
2022-12-09T02:44:48.340Z,11.60
2022-12-09T02:49:55.388Z,11.60
2022-12-09T02:55:00.898Z,11.60
2022-12-09T03:00:07.002Z,11.60
2022-12-09T03:05:34.219Z,11.50
2022-12-09T03:10:43.037Z,11.50
2022-12-09T03:15:53.667Z,11.50
2022-12-09T03:20:56.185Z,11.50
2022-12-09T03:26:00.216Z,11.50
2022-12-09T03:31:07.431Z,11.50
2022-12-09T03:36:13.752Z,11.50
2022-12-09T03:41:34.257Z,11.50
2022-12-09T03:46:36.977Z,11.50
2022-12-09T03:51:42.622Z,11.50
2022-12-09T03:56:50.975Z,11.40
2022-12-09T04:01:55.569Z,11.40
2022-12-09T04:06:58.726Z,11.40
2022-12-09T04:12:01.032Z,11.30
2022-12-09T04:17:04.135Z,11.30
2022-12-09T04:22:06.574Z,11.40
2022-12-09T04:27:11.884Z,11.40
2022-12-09T04:32:14.391Z,11.40
2022-12-09T04:37:16.777Z,11.40
2022-12-09T04:42:19.056Z,11.40
2022-12-09T04:47:21.263Z,11.50
2022-12-09T04:52:24.030Z,11.40
2022-12-09T04:57:26.593Z,11.50
2022-12-09T05:02:30.102Z,11.50
2022-12-09T05:07:32.912Z,11.40
2022-12-09T05:12:35.522Z,11.40
2022-12-09T05:17:38.449Z,11.40
2022-12-09T05:22:41.101Z,11.40
2022-12-09T05:27:43.402Z,11.40
2022-12-09T05:32:45.711Z,11.40
2022-12-09T05:37:48.605Z,11.40
2022-12-09T05:42:51.276Z,11.40
2022-12-09T05:47:53.725Z,11.40
2022-12-09T05:52:56.226Z,11.50
2022-12-09T05:57:58.619Z,11.50
2022-12-09T06:03:01.077Z,11.50
2022-12-09T06:08:07.073Z,11.60
2022-12-09T06:13:10.069Z,11.70
2022-12-09T06:18:12.359Z,11.80
2022-12-09T06:23:15.459Z,11.90
2022-12-09T06:28:19.675Z,11.90
2022-12-09T06:33:45.965Z,12.10
2022-12-09T06:38:44.459Z,12.20
2022-12-09T06:43:47.017Z,12.30
2022-12-09T06:48:49.856Z,12.40
2022-12-09T06:53:53.316Z,12.50
2022-12-09T06:58:56.181Z,12.60
2022-12-09T07:03:58.709Z,12.70
2022-12-09T07:09:06.344Z,12.80
2022-12-09T07:14:10.016Z,12.90
2022-12-09T07:19:18.551Z,13.20
2022-12-09T07:24:21.958Z,13.60
2022-12-09T07:29:24.690Z,13.80
2022-12-09T07:34:27.414Z,14.20
2022-12-09T07:39:30.396Z,14.50
2022-12-09T07:44:33.082Z,14.90
2022-12-09T07:49:35.698Z,15.30
2022-12-09T07:54:38.368Z,16.10
2022-12-09T07:59:40.887Z,16.90
2022-12-09T08:04:43.546Z,17.40
2022-12-09T08:09:46.506Z,18.20
2022-12-09T08:14:49.359Z,18.60
2022-12-09T08:19:52.301Z,19.10
2022-12-09T08:24:55.194Z,19.80
2022-12-09T08:29:57.891Z,20.50
2022-12-09T08:35:00.930Z,21.00
2022-12-09T08:40:03.695Z,22.00
2022-12-09T08:45:07.267Z,22.60
2022-12-09T08:50:10.213Z,23.00
2022-12-09T08:55:12.869Z,22.80
2022-12-09T09:00:16.230Z,22.20
2022-12-09T09:05:19.051Z,21.20
2022-12-09T09:10:22.485Z,20.40
2022-12-09T09:15:25.186Z,19.70
2022-12-09T09:20:27.591Z,19.10
2022-12-09T09:25:30.641Z,18.70
2022-12-09T09:30:33.100Z,18.30
2022-12-09T09:35:36.027Z,18.10
2022-12-09T09:40:42.303Z,17.80
2022-12-09T09:45:45.993Z,17.50
2022-12-09T09:51:06.510Z,17.30
2022-12-09T09:56:31.951Z,17.00
2022-12-09T10:01:37.019Z,16.70
2022-12-09T10:06:52.061Z,16.70
2022-12-09T10:12:09.562Z,16.50
2022-12-09T10:17:36.798Z,16.70
2022-12-09T10:22:48.243Z,16.80
2022-12-09T10:28:10.845Z,16.70
2022-12-09T10:33:15.774Z,16.70
2022-12-09T10:38:20.251Z,16.20
2022-12-09T10:43:36.303Z,16.20
2022-12-09T10:48:41.231Z,16.10
2022-12-09T10:54:17.894Z,15.40
2022-12-09T10:59:24.861Z,15.30
2022-12-09T11:04:30.686Z,15.00
2022-12-09T11:09:36.718Z,14.60
2022-12-09T11:14:48.661Z,14.50
2022-12-09T11:19:54.287Z,14.40
2022-12-09T11:25:15.813Z,14.20
2022-12-09T11:30:23.170Z,14.00
2022-12-09T11:35:30.648Z,13.80
2022-12-09T11:40:33.449Z,13.50
2022-12-09T11:45:38.974Z,13.40
2022-12-09T11:50:48.537Z,13.30
2022-12-09T11:56:18.373Z,13.10
2022-12-09T12:01:45.997Z,13.00
2022-12-09T12:06:52.517Z,13.10
2022-12-09T12:12:14.675Z,13.00
2022-12-09T12:17:37.406Z,13.10
2022-12-09T12:22:58.637Z,13.10
2022-12-09T12:28:21.420Z,13.10
2022-12-09T12:34:16.231Z,13.00
2022-12-09T12:39:33.089Z,13.00
2022-12-09T12:45:15.045Z,13.20
2022-12-09T12:50:43.705Z,13.30
2022-12-09T12:55:56.099Z,13.50
2022-12-09T13:01:19.478Z,13.70
2022-12-09T13:06:31.644Z,13.70
2022-12-09T13:11:47.898Z,13.80
2022-12-09T13:16:51.404Z,13.80
2022-12-09T13:21:53.919Z,13.90
2022-12-09T13:27:05.660Z,14.00
2022-12-09T13:32:27.754Z,14.00
2022-12-09T13:37:32.242Z,14.10
2022-12-09T13:42:54.995Z,14.20
2022-12-09T13:48:18.831Z,14.20
2022-12-09T13:53:21.045Z,14.20
2022-12-09T13:58:44.352Z,14.10
2022-12-09T14:04:26.941Z,14.00
2022-12-09T14:09:43.942Z,13.90
2022-12-09T14:14:50.466Z,13.80
2022-12-09T14:20:15.366Z,13.80
2022-12-09T14:25:34.154Z,13.70
2022-12-09T14:30:53.567Z,13.60
2022-12-09T14:36:04.971Z,13.50
2022-12-09T14:41:23.209Z,13.50
2022-12-09T14:46:34.501Z,13.30
2022-12-09T14:51:40.299Z,13.30
2022-12-09T14:56:51.711Z,13.30
2022-12-09T15:01:56.412Z,13.20
2022-12-09T15:07:20.390Z,12.90
2022-12-09T15:12:32.437Z,12.50
2022-12-09T15:17:58.565Z,12.20
2022-12-09T15:23:05.819Z,11.90
2022-12-09T15:28:26.994Z,11.90
2022-12-09T15:33:31.622Z,11.90
2022-12-09T15:38:41.245Z,12.00
2022-12-09T15:43:44.632Z,11.90
2022-12-09T15:48:51.858Z,11.80
2022-12-09T15:54:06.825Z,11.90
2022-12-09T15:59:33.006Z,11.90
2022-12-09T16:04:42.122Z,12.00
2022-12-09T16:10:04.511Z,12.00
2022-12-09T16:15:09.905Z,12.00
2022-12-09T16:20:21.855Z,12.10
2022-12-09T16:25:27.014Z,12.20
2022-12-09T16:30:32.703Z,12.30
2022-12-09T16:35:42.818Z,12.30
2022-12-09T16:40:45.048Z,12.40
2022-12-09T16:45:48.339Z,12.40
2022-12-09T16:50:58.989Z,12.40
2022-12-09T16:56:03.242Z,12.40
2022-12-09T17:01:06.158Z,12.40
2022-12-09T17:06:14.952Z,12.40
2022-12-09T17:11:18.924Z,12.30
2022-12-09T17:16:24.121Z,12.20
2022-12-09T17:21:26.550Z,12.10
2022-12-09T17:26:28.784Z,12.00
2022-12-09T17:31:31.144Z,11.90
2022-12-09T17:36:33.518Z,11.80
2022-12-09T17:41:35.800Z,11.60
2022-12-09T17:46:38.042Z,11.50
2022-12-09T17:51:40.860Z,11.50
2022-12-09T17:56:43.173Z,11.60
2022-12-09T18:01:47.097Z,11.60
2022-12-09T18:06:49.602Z,11.80
2022-12-09T18:11:52.216Z,11.90
2022-12-09T18:16:55.436Z,11.90
2022-12-09T18:22:00.249Z,12.00
2022-12-09T18:27:03.014Z,12.10
2022-12-09T18:32:06.173Z,12.10
2022-12-09T18:37:08.579Z,12.10
2022-12-09T18:42:10.895Z,12.10
2022-12-09T18:47:13.187Z,12.10
2022-12-09T18:52:15.455Z,12.00
2022-12-09T18:57:17.814Z,12.00
2022-12-09T19:02:20.436Z,12.10
2022-12-09T19:07:25.497Z,12.10
2022-12-09T19:12:46.425Z,12.10
2022-12-09T19:17:50.068Z,12.10
2022-12-09T19:22:53.576Z,12.20
2022-12-09T19:27:55.806Z,12.20
2022-12-09T19:32:58.069Z,12.20
2022-12-09T19:38:01.566Z,12.20
2022-12-09T19:43:04.301Z,12.20
2022-12-09T19:48:07.151Z,12.20
2022-12-09T19:53:09.562Z,12.30
2022-12-09T19:58:11.878Z,12.30
2022-12-09T20:03:14.299Z,12.30
2022-12-09T20:08:16.686Z,12.20
2022-12-09T20:13:19.014Z,12.20
2022-12-09T20:18:23.629Z,12.10
2022-12-09T20:23:25.891Z,12.10
2022-12-09T20:28:30.737Z,12.00
2022-12-09T20:33:33.742Z,12.10
2022-12-09T20:38:36.225Z,12.10
2022-12-09T20:43:43.047Z,12.10
2022-12-09T20:48:45.911Z,12.10
2022-12-09T20:53:49.118Z,12.20
2022-12-09T20:58:53.964Z,12.20
2022-12-09T21:03:57.372Z,12.20
2022-12-09T21:09:02.597Z,12.20
2022-12-09T21:14:07.986Z,12.20
2022-12-09T21:19:14.172Z,12.20
2022-12-09T21:24:18.381Z,12.20
2022-12-09T21:29:22.916Z,12.30
2022-12-09T21:34:27.288Z,12.40
2022-12-09T21:39:29.669Z,12.50
2022-12-09T21:44:31.928Z,12.60
2022-12-09T21:49:34.428Z,12.70
2022-12-09T21:54:38.108Z,12.80
2022-12-09T21:59:40.302Z,12.90
2022-12-09T22:05:13.220Z,13.00
2022-12-09T22:10:15.521Z,13.00
2022-12-09T22:15:17.872Z,13.10
2022-12-09T22:21:00.858Z,13.20
2022-12-09T22:25:42.416Z,13.30
2022-12-09T22:30:44.762Z,13.40
2022-12-09T22:35:47.055Z,13.50
2022-12-09T22:40:49.314Z,13.60
2022-12-09T22:45:51.571Z,13.60
2022-12-09T22:50:53.876Z,13.70
2022-12-09T22:55:56.118Z,13.70
2022-12-09T23:00:58.449Z,13.70
2022-12-09T23:06:02.071Z,13.60
2022-12-09T23:11:08.068Z,13.50
2022-12-09T23:16:14.174Z,13.50
2022-12-09T23:21:20.183Z,13.50
2022-12-09T23:26:25.766Z,13.60
2022-12-09T23:31:31.471Z,13.60
2022-12-09T23:36:36.564Z,13.60
2022-12-09T23:41:40.733Z,13.60
2022-12-09T23:46:43.685Z,13.60
2022-12-09T23:51:46.077Z,13.60
2022-12-09T23:56:49.900Z,13.60
